Aviation Digital Data Service (ADDS)

Output produced by METARs form (1306 UTC 19 January 2019)
found at http://www.aviationweather.gov/metar/data/
 
METAR text: FCBB 191200Z 24005KT 170V280 9999 SCT020 29/22 Q1013 NOSIG
Conditions at: FCBB (BRAZZAVILLE/MAYA, CG) observed 1200 UTC 19 January 2019
Temperature: 29.0°C (84°F)
Dewpoint: 22.0°C (72°F) [RH = 66%]
Pressure (altimeter): 29.91 inches Hg (1013.0 mb)
Winds: from the WSW (240 degrees) at 6 MPH (5 knots; 2.6 m/s)
Visibility: 6 or more miles (10+ km)
Ceiling: at least 12,000 feet AGL
Clouds: scattered clouds at 2000 feet AGL
Weather: no significant weather observed at this time

METAR text: FCBB 191100Z 21006KT 160V270 9999 SCT020 29/23 Q1014 NOSIG
Conditions at: FCBB (BRAZZAVILLE/MAYA, CG) observed 1100 UTC 19 January 2019
Temperature: 29.0°C (84°F)
Dewpoint: 23.0°C (73°F) [RH = 70%]
Pressure (altimeter): 29.94 inches Hg (1014.0 mb)
Winds: from the SSW (210 degrees) at 7 MPH (6 knots; 3.1 m/s)
Visibility: 6 or more miles (10+ km)
Ceiling: at least 12,000 feet AGL
Clouds: scattered clouds at 2000 feet AGL
Weather: no significant weather observed at this time

METAR text: FCBB 191000Z 20005KT 9999 SCT020 27/23 Q1015 NOSIG
Conditions at: FCBB (BRAZZAVILLE/MAYA, CG) observed 1000 UTC 19 January 2019
Temperature: 27.0°C (81°F)
Dewpoint: 23.0°C (73°F) [RH = 79%]
Pressure (altimeter): 29.97 inches Hg (1015.0 mb)
Winds: from the SSW (200 degrees) at 6 MPH (5 knots; 2.6 m/s)
Visibility: 6 or more miles (10+ km)
Ceiling: at least 12,000 feet AGL
Clouds: scattered clouds at 2000 feet AGL
Weather: no significant weather observed at this time

METAR text: FCBB 190900Z 23004KT 190V270 9999 SCT018 BKN023 25/23 Q1016 NOSIG
Conditions at: FCBB (BRAZZAVILLE/MAYA, CG) observed 0900 UTC 19 January 2019
Temperature: 25.0°C (77°F)
Dewpoint: 23.0°C (73°F) [RH = 89%]
Pressure (altimeter): 30.00 inches Hg (1016.0 mb)
Winds: from the SW (230 degrees) at 5 MPH (4 knots; 2.1 m/s)
Visibility: 6 or more miles (10+ km)
Ceiling: 2300 feet AGL
Clouds: scattered clouds at 1800 feet AGL
broken clouds at 2300 feet AGL
Weather: no significant weather observed at this time

METAR text: FCBB 190800Z 23004KT 190V260 8000 SCT018 25/22 Q1016 NOSIG
Conditions at: FCBB (BRAZZAVILLE/MAYA, CG) observed 0800 UTC 19 January 2019
Temperature: 25.0°C (77°F)
Dewpoint: 22.0°C (72°F) [RH = 83%]
Pressure (altimeter): 30.00 inches Hg (1016.0 mb)
Winds: from the SW (230 degrees) at 5 MPH (4 knots; 2.1 m/s)
Visibility: 5 miles ( 8 km)
Ceiling: at least 12,000 feet AGL
Clouds: scattered clouds at 1800 feet AGL
Weather: no significant weather observed at this time

METAR text: FCBB 190700Z 00000KT 9999 FEW010 SCT020 25/22 Q1015 NOSIG
Conditions at: FCBB (BRAZZAVILLE/MAYA, CG) observed 0700 UTC 19 January 2019
Temperature: 25.0°C (77°F)
Dewpoint: 22.0°C (72°F) [RH = 83%]
Pressure (altimeter): 29.97 inches Hg (1015.0 mb)
Winds: calm
Visibility: 6 or more miles (10+ km)
Ceiling: at least 12,000 feet AGL
Clouds: few clouds at 1000 feet AGL
scattered clouds at 2000 feet AGL
Weather: no significant weather observed at this time

METAR text: FCBB 190600Z VRB01KT 9999 FEW010 23/22 Q1014 NOSIG
Conditions at: FCBB (BRAZZAVILLE/MAYA, CG) observed 0600 UTC 19 January 2019
Temperature: 23.0°C (73°F)
Dewpoint: 22.0°C (72°F) [RH = 94%]
Pressure (altimeter): 29.94 inches Hg (1014.0 mb)
Winds: variable direction winds at 1 MPH (1 knots; 0.5 m/s)
Visibility: 6 or more miles (10+ km)
Ceiling: at least 12,000 feet AGL
Clouds: few clouds at 1000 feet AGL
Weather: no significant weather observed at this time

METAR text: FCBB 190500Z 00000KT 9999 FEW010 23/22 Q1014 NOSIG
Conditions at: FCBB (BRAZZAVILLE/MAYA, CG) observed 0500 UTC 19 January 2019
Temperature: 23.0°C (73°F)
Dewpoint: 22.0°C (72°F) [RH = 94%]
Pressure (altimeter): 29.94 inches Hg (1014.0 mb)
Winds: calm
Visibility: 6 or more miles (10+ km)
Ceiling: at least 12,000 feet AGL
Clouds: few clouds at 1000 feet AGL
Weather: no significant weather observed at this time

METAR text: FCBB 190400Z VRB01KT 9999 FEW010 23/22 Q1014 NOSIG
Conditions at: FCBB (BRAZZAVILLE/MAYA, CG) observed 0400 UTC 19 January 2019
Temperature: 23.0°C (73°F)
Dewpoint: 22.0°C (72°F) [RH = 94%]
Pressure (altimeter): 29.94 inches Hg (1014.0 mb)
Winds: variable direction winds at 1 MPH (1 knots; 0.5 m/s)
Visibility: 6 or more miles (10+ km)
Ceiling: at least 12,000 feet AGL
Clouds: few clouds at 1000 feet AGL
Weather: no significant weather observed at this time

METAR text: FCBB 190300Z 21002KT 9999 FEW020 23/21 Q1014 NOSIG
Conditions at: FCBB (BRAZZAVILLE/MAYA, CG) observed 0300 UTC 19 January 2019
Temperature: 23.0°C (73°F)
Dewpoint: 21.0°C (70°F) [RH = 89%]
Pressure (altimeter): 29.94 inches Hg (1014.0 mb)
Winds: from the SSW (210 degrees) at 2 MPH (2 knots; 1.0 m/s)
Visibility: 6 or more miles (10+ km)
Ceiling: at least 12,000 feet AGL
Clouds: few clouds at 2000 feet AGL
Weather: no significant weather observed at this time

METAR text: FCBB 190200Z 23003KT 9999 FEW020 23/21 Q1014 NOSIG
Conditions at: FCBB (BRAZZAVILLE/MAYA, CG) observed 0200 UTC 19 January 2019
Temperature: 23.0°C (73°F)
Dewpoint: 21.0°C (70°F) [RH = 89%]
Pressure (altimeter): 29.94 inches Hg (1014.0 mb)
Winds: from the SW (230 degrees) at 3 MPH (3 knots; 1.5 m/s)
Visibility: 6 or more miles (10+ km)
Ceiling: at least 12,000 feet AGL
Clouds: few clouds at 2000 feet AGL
Weather: no significant weather observed at this time

METAR text: FCBB 190100Z 23003KT 9999 SCT020 23/21 Q1014 NOSIG
Conditions at: FCBB (BRAZZAVILLE/MAYA, CG) observed 0100 UTC 19 January 2019
Temperature: 23.0°C (73°F)
Dewpoint: 21.0°C (70°F) [RH = 89%]
Pressure (altimeter): 29.94 inches Hg (1014.0 mb)
Winds: from the SW (230 degrees) at 3 MPH (3 knots; 1.5 m/s)
Visibility: 6 or more miles (10+ km)
Ceiling: at least 12,000 feet AGL
Clouds: scattered clouds at 2000 feet AGL
Weather: no significant weather observed at this time

METAR text: FCBB 190000Z VRB02KT 8000 SCT020 24/22 Q1014 NOSIG
Conditions at: FCBB (BRAZZAVILLE/MAYA, CG) observed 0000 UTC 19 January 2019
Temperature: 24.0°C (75°F)
Dewpoint: 22.0°C (72°F) [RH = 89%]
Pressure (altimeter): 29.94 inches Hg (1014.0 mb)
Winds: variable direction winds at 2 MPH (2 knots; 1.0 m/s)
Visibility: 5 miles ( 8 km)
Ceiling: at least 12,000 feet AGL
Clouds: scattered clouds at 2000 feet AGL
Weather: no significant weather observed at this time

METAR text: FCBB 182300Z 00000KT 8000 SCT020 23/22 Q1015 NOSIG
Conditions at: FCBB (BRAZZAVILLE/MAYA, CG) observed 2300 UTC 18 January 2019
Temperature: 23.0°C (73°F)
Dewpoint: 22.0°C (72°F) [RH = 94%]
Pressure (altimeter): 29.97 inches Hg (1015.0 mb)
Winds: calm
Visibility: 5 miles ( 8 km)
Ceiling: at least 12,000 feet AGL
Clouds: scattered clouds at 2000 feet AGL
Weather: no significant weather observed at this time

METAR text: FCBB 182200Z VRB01KT 8000 FEW020 23/21 Q1015 NOSIG
Conditions at: FCBB (BRAZZAVILLE/MAYA, CG) observed 2200 UTC 18 January 2019
Temperature: 23.0°C (73°F)
Dewpoint: 21.0°C (70°F) [RH = 89%]
Pressure (altimeter): 29.97 inches Hg (1015.0 mb)
Winds: variable direction winds at 1 MPH (1 knots; 0.5 m/s)
Visibility: 5 miles ( 8 km)
Ceiling: at least 12,000 feet AGL
Clouds: few clouds at 2000 feet AGL
Weather: no significant weather observed at this time

METAR text: FCBB 182100Z VRB02KT 8000 FEW020 24/21 Q1014 NOSIG
Conditions at: FCBB (BRAZZAVILLE/MAYA, CG) observed 2100 UTC 18 January 2019
Temperature: 24.0°C (75°F)
Dewpoint: 21.0°C (70°F) [RH = 83%]
Pressure (altimeter): 29.94 inches Hg (1014.0 mb)
Winds: variable direction winds at 2 MPH (2 knots; 1.0 m/s)
Visibility: 5 miles ( 8 km)
Ceiling: at least 12,000 feet AGL
Clouds: few clouds at 2000 feet AGL
Weather: no significant weather observed at this time

METAR text: FCBB 182000Z 24003KT 7000 FEW020 24/21 Q1014 NOSIG
Conditions at: FCBB (BRAZZAVILLE/MAYA, CG) observed 2000 UTC 18 January 2019
Temperature: 24.0°C (75°F)
Dewpoint: 21.0°C (70°F) [RH = 83%]
Pressure (altimeter): 29.94 inches Hg (1014.0 mb)
Winds: from the WSW (240 degrees) at 3 MPH (3 knots; 1.5 m/s)
Visibility: 4 miles ( 7 km)
Ceiling: at least 12,000 feet AGL
Clouds: few clouds at 2000 feet AGL
Weather: no significant weather observed at this time

METAR text: FCBB 181900Z 00000KT 9000 FEW020 24/20 Q1013 NOSIG
Conditions at: FCBB (BRAZZAVILLE/MAYA, CG) observed 1900 UTC 18 January 2019
Temperature: 24.0°C (75°F)
Dewpoint: 20.0°C (68°F) [RH = 78%]
Pressure (altimeter): 29.91 inches Hg (1013.0 mb)
Winds: calm
Visibility: 6 miles ( 9 km)
Ceiling: at least 12,000 feet AGL
Clouds: few clouds at 2000 feet AGL
Weather: no significant weather observed at this time

METAR text: FCBB 181800Z VRB02KT 8000 FEW020 FEW030CB 25/20 Q1012 RETS NOSIG
Conditions at: FCBB (BRAZZAVILLE/MAYA, CG) observed 1800 UTC 18 January 2019
Temperature: 25.0°C (77°F)
Dewpoint: 20.0°C (68°F) [RH = 74%]
Pressure (altimeter): 29.88 inches Hg (1012.0 mb)
Winds: variable direction winds at 2 MPH (2 knots; 1.0 m/s)
Visibility: 5 miles ( 8 km)
Ceiling: at least 12,000 feet AGL
Clouds: few clouds at 2000 feet AGL
few clouds at 3000 feet AGL
Weather: no significant weather observed at this time

METAR text: FCBB 181700Z 30007KT 240V350 8000 TS SCT018 FEW026CB 26/20 Q1012 NOSIG
Conditions at: FCBB (BRAZZAVILLE/MAYA, CG) observed 1700 UTC 18 January 2019
Temperature: 26.0°C (79°F)
Dewpoint: 20.0°C (68°F) [RH = 70%]
Pressure (altimeter): 29.88 inches Hg (1012.0 mb)
Winds: from the WNW (300 degrees) at 8 MPH (7 knots; 3.6 m/s)
Visibility: 5 miles ( 8 km)
Ceiling: at least 12,000 feet AGL
Clouds: scattered clouds at 1800 feet AGL
few clouds at 2600 feet AGL
Weather: TS  (thunderstorm)

METAR text: FCBB 181600Z 25010KT 7000 TS FEW007 SCT018 FEW026CB 27/22 Q1011 TEMPO 08007G15KT 4000 TSRA
Conditions at: FCBB (BRAZZAVILLE/MAYA, CG) observed 1600 UTC 18 January 2019
Temperature: 27.0°C (81°F)
Dewpoint: 22.0°C (72°F) [RH = 74%]
Pressure (altimeter): 29.85 inches Hg (1011.0 mb)
Winds: from the WSW (250 degrees) at 12 MPH (10 knots; 5.1 m/s)
Visibility: 4 miles ( 7 km)
Ceiling: at least 12,000 feet AGL
Clouds: few clouds at 700 feet AGL
scattered clouds at 1800 feet AGL
few clouds at 2600 feet AGL
Weather: TS  (thunderstorm)

METAR text: FCBB 181500Z 24010KT 210V280 8000 BKN017 FEW026CB 28/23 Q1011 TEMPO 08007G15MPS 4000 TSRA
Conditions at: FCBB (BRAZZAVILLE/MAYA, CG) observed 1500 UTC 18 January 2019
Temperature: 28.0°C (82°F)
Dewpoint: 23.0°C (73°F) [RH = 74%]
Pressure (altimeter): 29.85 inches Hg (1011.0 mb)
Winds: from the WSW (240 degrees) at 12 MPH (10 knots; 5.1 m/s)
Visibility: 5 miles ( 8 km)
Ceiling: 1700 feet AGL
Clouds: broken clouds at 1700 feet AGL
few clouds at 2600 feet AGL
Weather: no significant weather observed at this time

METAR text: FCBB 181400Z 26010KT 220V300 9999 SCT018 FEW026CB 29/24 Q1010 NOSIG
Conditions at: FCBB (BRAZZAVILLE/MAYA, CG) observed 1400 UTC 18 January 2019
Temperature: 29.0°C (84°F)
Dewpoint: 24.0°C (75°F) [RH = 74%]
Pressure (altimeter): 29.82 inches Hg (1010.0 mb)
Winds: from the W (260 degrees) at 12 MPH (10 knots; 5.1 m/s)
Visibility: 6 or more miles (10+ km)
Ceiling: at least 12,000 feet AGL
Clouds: scattered clouds at 1800 feet AGL
few clouds at 2600 feet AGL
Weather: no significant weather observed at this time

METAR text: FCBB 181300Z VRB03KT 9999 SCT018 FEW026CB 31/23 Q1011 NOSIG
Conditions at: FCBB (BRAZZAVILLE/MAYA, CG) observed 1300 UTC 18 January 2019
Temperature: 31.0°C (88°F)
Dewpoint: 23.0°C (73°F) [RH = 63%]
Pressure (altimeter): 29.85 inches Hg (1011.0 mb)
Winds: variable direction winds at 3 MPH (3 knots; 1.5 m/s)
Visibility: 6 or more miles (10+ km)
Ceiling: at least 12,000 feet AGL
Clouds: scattered clouds at 1800 feet AGL
few clouds at 2600 feet AGL
Weather: no significant weather observed at this time

METAR text: FCBB 181200Z VRB03KT 9999 SCT018 29/23 Q1013 NOSIG
Conditions at: FCBB (BRAZZAVILLE/MAYA, CG) observed 1200 UTC 18 January 2019
Temperature: 29.0°C (84°F)
Dewpoint: 23.0°C (73°F) [RH = 70%]
Pressure (altimeter): 29.91 inches Hg (1013.0 mb)
Winds: variable direction winds at 3 MPH (3 knots; 1.5 m/s)
Visibility: 6 or more miles (10+ km)
Ceiling: at least 12,000 feet AGL
Clouds: scattered clouds at 1800 feet AGL
Weather: no significant weather observed at this time

METAR text: FCBB 181100Z 26004KT 210V300 9999 FEW010 BKN016 FEW026CB 27/23 Q1014 NOSIG
Conditions at: FCBB (BRAZZAVILLE/MAYA, CG) observed 1100 UTC 18 January 2019
Temperature: 27.0°C (81°F)
Dewpoint: 23.0°C (73°F) [RH = 79%]
Pressure (altimeter): 29.94 inches Hg (1014.0 mb)
Winds: from the W (260 degrees) at 5 MPH (4 knots; 2.1 m/s)
Visibility: 6 or more miles (10+ km)
Ceiling: 1600 feet AGL
Clouds: few clouds at 1000 feet AGL
broken clouds at 1600 feet AGL
few clouds at 2600 feet AGL
Weather: no significant weather observed at this time

METAR text: FCBB 181000Z 22006KT 170V260 9999 BKN016 FEW026CB 28/23 Q1015 NOSIG
Conditions at: FCBB (BRAZZAVILLE/MAYA, CG) observed 1000 UTC 18 January 2019
Temperature: 28.0°C (82°F)
Dewpoint: 23.0°C (73°F) [RH = 74%]
Pressure (altimeter): 29.97 inches Hg (1015.0 mb)
Winds: from the SW (220 degrees) at 7 MPH (6 knots; 3.1 m/s)
Visibility: 6 or more miles (10+ km)
Ceiling: 1600 feet AGL
Clouds: broken clouds at 1600 feet AGL
few clouds at 2600 feet AGL
Weather: no significant weather observed at this time

METAR text: FCBB 180900Z 24005KT 9000 BKN013 27/22 Q1016 NOSIG
Conditions at: FCBB (BRAZZAVILLE/MAYA, CG) observed 0900 UTC 18 January 2019
Temperature: 27.0°C (81°F)
Dewpoint: 22.0°C (72°F) [RH = 74%]
Pressure (altimeter): 30.00 inches Hg (1016.0 mb)
Winds: from the WSW (240 degrees) at 6 MPH (5 knots; 2.6 m/s)
Visibility: 6 miles ( 9 km)
Ceiling: 1300 feet AGL
Clouds: broken clouds at 1300 feet AGL
Weather: no significant weather observed at this time

METAR text: FCBB 180800Z 28005KT 210V330 9999 SCT013 26/22 Q1016 NOSIG
Conditions at: FCBB (BRAZZAVILLE/MAYA, CG) observed 0800 UTC 18 January 2019
Temperature: 26.0°C (79°F)
Dewpoint: 22.0°C (72°F) [RH = 79%]
Pressure (altimeter): 30.00 inches Hg (1016.0 mb)
Winds: from the W (280 degrees) at 6 MPH (5 knots; 2.6 m/s)
Visibility: 6 or more miles (10+ km)
Ceiling: at least 12,000 feet AGL
Clouds: scattered clouds at 1300 feet AGL
Weather: no significant weather observed at this time

METAR text: FCBB 180700Z 25004KT 220V290 9999 FEW010 25/22 Q1015 NOSIG
Conditions at: FCBB (BRAZZAVILLE/MAYA, CG) observed 0700 UTC 18 January 2019
Temperature: 25.0°C (77°F)
Dewpoint: 22.0°C (72°F) [RH = 83%]
Pressure (altimeter): 29.97 inches Hg (1015.0 mb)
Winds: from the WSW (250 degrees) at 5 MPH (4 knots; 2.1 m/s)
Visibility: 6 or more miles (10+ km)
Ceiling: at least 12,000 feet AGL
Clouds: few clouds at 1000 feet AGL
Weather: no significant weather observed at this time

METAR text: FCBB 180600Z 34002KT 9999 FEW009 SCT023 23/22 Q1014 NOSIG
Conditions at: FCBB (BRAZZAVILLE/MAYA, CG) observed 0600 UTC 18 January 2019
Temperature: 23.0°C (73°F)
Dewpoint: 22.0°C (72°F) [RH = 94%]
Pressure (altimeter): 29.94 inches Hg (1014.0 mb)
Winds: from the NNW (340 degrees) at 2 MPH (2 knots; 1.0 m/s)
Visibility: 6 or more miles (10+ km)
Ceiling: at least 12,000 feet AGL
Clouds: few clouds at 900 feet AGL
scattered clouds at 2300 feet AGL
Weather: no significant weather observed at this time

METAR text: FCBB 180500Z VRB01KT 9999 SCT023 23/21 Q1014 NOSIG
Conditions at: FCBB (BRAZZAVILLE/MAYA, CG) observed 0500 UTC 18 January 2019
Temperature: 23.0°C (73°F)
Dewpoint: 21.0°C (70°F) [RH = 89%]
Pressure (altimeter): 29.94 inches Hg (1014.0 mb)
Winds: variable direction winds at 1 MPH (1 knots; 0.5 m/s)
Visibility: 6 or more miles (10+ km)
Ceiling: at least 12,000 feet AGL
Clouds: scattered clouds at 2300 feet AGL
Weather: no significant weather observed at this time

METAR text: FCBB 180400Z 25002KT 9999 FEW009 SCT023 23/22 Q1013 NOSIG
Conditions at: FCBB (BRAZZAVILLE/MAYA, CG) observed 0400 UTC 18 January 2019
Temperature: 23.0°C (73°F)
Dewpoint: 22.0°C (72°F) [RH = 94%]
Pressure (altimeter): 29.91 inches Hg (1013.0 mb)
Winds: from the WSW (250 degrees) at 2 MPH (2 knots; 1.0 m/s)
Visibility: 6 or more miles (10+ km)
Ceiling: at least 12,000 feet AGL
Clouds: few clouds at 900 feet AGL
scattered clouds at 2300 feet AGL
Weather: no significant weather observed at this time

METAR text: FCBB 180300Z 26003KT 230V300 9999 FEW009 SCT023 24/21 Q1013 NOSIG
Conditions at: FCBB (BRAZZAVILLE/MAYA, CG) observed 0300 UTC 18 January 2019
Temperature: 24.0°C (75°F)
Dewpoint: 21.0°C (70°F) [RH = 83%]
Pressure (altimeter): 29.91 inches Hg (1013.0 mb)
Winds: from the W (260 degrees) at 3 MPH (3 knots; 1.5 m/s)
Visibility: 6 or more miles (10+ km)
Ceiling: at least 12,000 feet AGL
Clouds: few clouds at 900 feet AGL
scattered clouds at 2300 feet AGL
Weather: no significant weather observed at this time

METAR text: FCBB 180200Z VRB02KT 9000 SCT023 24/22 Q1012 NOSIG
Conditions at: FCBB (BRAZZAVILLE/MAYA, CG) observed 0200 UTC 18 January 2019
Temperature: 24.0°C (75°F)
Dewpoint: 22.0°C (72°F) [RH = 89%]
Pressure (altimeter): 29.88 inches Hg (1012.0 mb)
Winds: variable direction winds at 2 MPH (2 knots; 1.0 m/s)
Visibility: 6 miles ( 9 km)
Ceiling: at least 12,000 feet AGL
Clouds: scattered clouds at 2300 feet AGL
Weather: no significant weather observed at this time

Forecast for: FCBB (BRAZZAVILLE/MAYA, CG)
Text: TAF FCBB 191100Z 1912/2018 27006KT 9999 SCT020
Forecast period: 1200 to 1300 UTC 19 January 2019
Forecast type: FROM: standard forecast or significant change
Winds: from the W (270 degrees) at 7 MPH (6 knots; 3.1 m/s)
Visibility: 6 or more miles 10+ km)
Ceiling: at least 12,000 feet AGL
Clouds: scattered clouds at 2000 feet AGL
Weather: no significant weather forecast for this period
Text: BECMG 1913/1915 SCT020 FEW030CB
Forecast period: 1300 UTC 19 January 2019 to 1800 UTC 20 January 2019
Forecast type: BECOMING: Conditions expected to become as follows by 1500 UTC 19 January 2019
Winds: from the W (270 degrees) at 7 MPH (6 knots; 3.1 m/s)
Visibility: 6 or more miles 10+ km)
Ceiling: at least 12,000 feet AGL
Clouds: scattered clouds at 2000 feet AGL
few clouds at 3000 feet AGL
Weather: no significant weather forecast for this period
Text: TEMPO 1916/1921 TS
Forecast period: 1600 to 2100 UTC 19 January 2019
Forecast type: TEMPORARY: The following changes expected for less than half the time period
Visibility: missing
Ceiling: unknown
Clouds: missing
Weather: TS  (thunderstorm)